Temp: 10.3°C   Baro: 1019.4mb
  Wind: 2.9mph   Dir: SW (214°)
  Rain: 0.0mm (0.0mm/hr)
  Solar: 0W/m2  Hum: 89%
 
Bath Spa Weather Station Historical Data
Daily Summary for October 24, 2020 Units:  English    Metric   Both
Daily Weekly Monthly Yearly Custom
  High: Low: Average:
Temperature: 59.1 °F 43.5 °F 53.2 °F
Dew Point: 56.5 °F 41.2 °F 50.6 °F
Humidity: 92% 82% 88%
Wind Speed: 17.2mph 0mph 5.7mph
Wind Gust: 32mph - -
Wind- - SW
Pressure: 29.80 in 29.33 in -
Precipitation: 0.31 in    
Historical Graphs
 
 
Tabular Data for October 24, 2020
Time Temperature Dew Point Pressure Wind Wind Speed Wind Gust Humidity Rainfall Rate (Hourly) solar
00:04 43.5 °F 41.2 °F 29.80 in WSW 0.2 mph 1 mph 88% 0.00 in 0 W/m2
00:09 43.7 °F 41.5 °F 29.80 in WSW 0.4 mph 2 mph 88.8% 0.00 in 0 W/m2
00:14 43.9 °F 41.4 °F 29.80 in Calm   4 mph 88% 0.00 in 0 W/m2
00:19 44.2 °F 41.9 °F 29.80 in Calm   4 mph 88.6% 0.00 in 0 W/m2
00:24 44.4 °F 42.3 °F 29.80 in WSW 0.2 mph 2 mph 89% 0.00 in 0 W/m2
00:29 44.7 °F 42.2 °F 29.79 in WSW 0.4 mph 2 mph 88% 0.00 in 0 W/m2
00:34 44.9 °F 42.4 °F 29.79 in Calm   2 mph 88% 0.00 in 0 W/m2
00:39 45 °F 42.5 °F 29.79 in Calm     88% 0.00 in 0 W/m2
00:44 45.1 °F 42.6 °F 29.79 in Calm   1 mph 88% 0.00 in 0 W/m2
00:49 45.4 °F 42.9 °F 29.78 in WSW 1.7 mph 4 mph 88% 0.00 in 0 W/m2
00:54 45.9 °F 43.3 °F 29.78 in WSW 0.4 mph 4 mph 88% 0.00 in 0 W/m2
00:59 46.3 °F 43.6 °F 29.78 in WSW 0.8 mph 4 mph 87.2% 0.00 in 0 W/m2
01:04 46.9 °F 44 °F 29.78 in SW 3.5 mph 8 mph 86.4% 0.00 in 0 W/m2
01:09 47.5 °F 44.2 °F 29.78 in SSW 3.2 mph 8 mph 85.4% 0.00 in 0 W/m2
01:14 47.8 °F 44.4 °F 29.78 in SSW 3.2 mph 8 mph 85% 0.00 in 0 W/m2
01:19 48 °F 44.6 °F 29.78 in SSW 3.9 mph 9 mph 85% 0.00 in 0 W/m2
01:24 48 °F 44.6 °F 29.78 in SSW 2 mph 8 mph 85% 0.00 in 0 W/m2
01:29 47.9 °F 44.5 °F 29.78 in SSW 1.7 mph 7 mph 85% 0.00 in 0 W/m2
01:34 47.8 °F 44.6 °F 29.78 in SSW 0.2 mph 5 mph 85.6% 0.00 in 0 W/m2
01:39 47.7 °F 44.6 °F 29.78 in SW 2 mph 8 mph 86% 0.00 in 0 W/m2
01:44 47.7 °F 44.6 °F 29.77 in SSW 2 mph 5 mph 86% 0.00 in 0 W/m2
01:49 47.5 °F 44.4 °F 29.78 in SSW 3.2 mph 5 mph 86% 0.00 in 0 W/m2
01:54 47.6 °F 44.5 °F 29.77 in SW 1.7 mph 7 mph 86% 0.00 in 0 W/m2
01:59 47.7 °F 44.6 °F 29.77 in WSW 0.2 mph 4 mph 86% 0.00 in 0 W/m2
02:04 47.7 °F 44.6 °F 29.77 in SW 1.7 mph 6 mph 86% 0.00 in 0 W/m2
02:09 47.8 °F 44.7 °F 29.76 in SSW 2.3 mph 6 mph 86% 0.00 in 0 W/m2
02:14 47.9 °F 44.9 °F 29.76 in SSW 2.2 mph 6 mph 86% 0.00 in 0 W/m2
02:19 48.1 °F 45.2 °F 29.76 in SW 3.2 mph 6 mph 86.8% 0.00 in 0 W/m2
02:24 48.2 °F 45.2 °F 29.76 in SW 0.4 mph 4 mph 86.6% 0.00 in 0 W/m2
02:29 48 °F 45.1 °F 29.75 in Calm   1 mph 87% 0.00 in 0 W/m2
02:34 48 °F 45.1 °F 29.75 in SW 0.2 mph 3 mph 87% 0.00 in 0 W/m2
02:39 48 °F 45.1 °F 29.75 in South 0.6 mph 5 mph 87% 0.00 in 0 W/m2
02:44 48 °F 45.1 °F 29.75 in SSE 0.6 mph 3 mph 87% 0.00 in 0 W/m2
02:49 48 °F 45.1 °F 29.75 in SSE 1.3 mph 3 mph 87% 0.00 in 0 W/m2
02:54 48 °F 45.1 °F 29.74 in SSE 0.5 mph 3 mph 87% 0.00 in 0 W/m2
02:59 48 °F 45.1 °F 29.73 in Calm   2 mph 87% 0.00 in 0 W/m2
03:04 47.8 °F 44.9 °F 29.73 in Calm   1 mph 87% 0.00 in 0 W/m2
03:09 47.5 °F 44.8 °F 29.73 in Calm   3 mph 87% 0.00 in 0 W/m2
03:14 47.1 °F 44.4 °F 29.73 in South 0.2 mph 2 mph 87% 0.00 in 0 W/m2
03:19 47.4 °F 44.8 °F 29.73 in West 1 mph 3 mph 87.6% 0.00 in 0 W/m2
03:24 47.7 °F 45.1 °F 29.73 in WNW 0.2 mph 3 mph 88% 0.00 in 0 W/m2
03:29 47.7 °F 45.1 °F 29.73 in WSW 0.8 mph 4 mph 88% 0.00 in 0 W/m2
03:34 47.9 °F 45.4 °F 29.73 in Calm   3 mph 88% 0.00 in 0 W/m2
03:39 48 °F 45.5 °F 29.72 in WSW 0.2 mph 2 mph 88% 0.00 in 0 W/m2
03:44 48 °F 45.5 °F 29.72 in SW 2 mph 6 mph 88% 0.00 in 0 W/m2
03:49 48.2 °F 45.7 °F 29.72 in South 1.7 mph 4 mph 88% 0.00 in 0 W/m2
03:54 48.2 °F 45.7 °F 29.71 in SW 1.6 mph 6 mph 88% 0.00 in 0 W/m2
03:59 48.4 °F 45.9 °F 29.71 in SW 2.2 mph 6 mph 88% 0.00 in 0 W/m2
04:04 48.6 °F 45.9 °F 29.71 in SW 5.9 mph 10 mph 87.4% 0.00 in 0 W/m2
04:09 49.1 °F 46.1 °F 29.71 in SW 7.3 mph 12 mph 86.4% 0.00 in 0 W/m2
04:14 49.5 °F 46.1 °F 29.72 in SSW 6.4 mph 14 mph 85.2% 0.00 in 0 W/m2
04:19 49.6 °F 46 °F 29.71 in SW 4.8 mph 10 mph 84.4% 0.00 in 0 W/m2
04:24 49.7 °F 45.9 °F 29.71 in SW 7.5 mph 9 mph 83.8% 0.00 in 0 W/m2
04:29 49.8 °F 45.7 °F 29.71 in SSW 6.5 mph 13 mph 83% 0.00 in 0 W/m2
04:34 50.1 °F 45.9 °F 29.71 in SW 7 mph 11 mph 83% 0.00 in 0 W/m2
04:39 50.3 °F 46 °F 29.70 in SW 7.9 mph 11 mph 82.8% 0.00 in 0 W/m2
04:44 50.4 °F 46.2 °F 29.70 in SW 5.5 mph 12 mph 82.5% 0.00 in 0 W/m2
04:49 50.5 °F 46.1 °F 29.70 in SSW 5.6 mph 12 mph 82% 0.00 in 0 W/m2
04:54 50.5 °F 46.2 °F 29.69 in SW 6.4 mph 12 mph 82% 0.00 in 0 W/m2
04:59 50.5 °F 46.2 °F 29.68 in SW 3.1 mph 12 mph 82% 0.00 in 0 W/m2
05:04 50.4 °F 46.1 °F 29.68 in SW 2.6 mph 6 mph 82% 0.00 in 0 W/m2
05:09 50.5 °F 46.2 °F 29.68 in SW 0.6 mph 5 mph 82.2% 0.00 in 0 W/m2
05:14 50.5 °F 46.3 °F 29.68 in Calm     83% 0.00 in 0 W/m2
05:19 50.4 °F 46.3 °F 29.68 in Calm   3 mph 83% 0.00 in 0 W/m2
05:24 50.6 °F 46.5 °F 29.68 in SSE 0.4 mph 5 mph 83% 0.00 in 0 W/m2
05:29 50.9 °F 46.8 °F 29.68 in SSW 1.6 mph 6 mph 83% 0.00 in 0 W/m2
05:34 51.1 °F 46.9 °F 29.67 in South 0.9 mph 5 mph 83% 0.00 in 0 W/m2
05:39 51.3 °F 47.1 °F 29.67 in South 3.4 mph 7 mph 83% 0.00 in 0 W/m2
05:44 51.4 °F 47.3 °F 29.67 in South 1.6 mph 7 mph 83% 0.00 in 0 W/m2
05:49 51.6 °F 47.5 °F 29.66 in SSE 1.6 mph 6 mph 83% 0.00 in 0 W/m2
05:54 51.6 °F 47.5 °F 29.66 in ESE 2.5 mph 5 mph 83% 0.00 in 0 W/m2
05:59 51.6 °F 47.5 °F 29.66 in SE 2.9 mph 7 mph 83% 0.00 in 0 W/m2
06:04 51.4 °F 47.4 °F 29.65 in SE 3.4 mph 9 mph 83.2% 0.00 in 0 W/m2
06:09 51.4 °F 47.6 °F 29.65 in ESE 4 mph 8 mph 83.8% 0.00 in 0 W/m2
06:14 51.4 °F 47.7 °F 29.65 in SSE 2.2 mph 7 mph 84% 0.00 in 0 W/m2
06:19 51.6 °F 47.8 °F 29.65 in SE 2.5 mph 5 mph 84% 0.00 in 0 W/m2
06:24 51.6 °F 47.8 °F 29.64 in ESE 3.3 mph 9 mph 84% 0.00 in 0 W/m2
06:29 52.1 °F 48.7 °F 29.64 in SSE 2 mph 6 mph 85% 0.00 in 0 W/m2
06:34 52.2 °F 48.7 °F 29.64 in SSE 3.3 mph 9 mph 85% 0.00 in 0 W/m2
06:39 52.5 °F 49.1 °F 29.63 in SSE 2 mph 9 mph 85% 0.00 in 0 W/m2
06:44 52.5 °F 49.1 °F 29.63 in SSE 2.4 mph 7 mph 85% 0.00 in 0 W/m2
06:49 52.9 °F 49.5 °F 29.62 in South 4.2 mph 14 mph 85% 0.00 in 0 W/m2
06:54 53.3 °F 49.8 °F 29.62 in South 6.4 mph 17 mph 85.4% 0.00 in 0 W/m2
06:59 53.5 °F 49.9 °F 29.61 in SSW 4.1 mph 8 mph 85% 0.00 in 0 W/m2
07:04 53.7 °F 50.5 °F 29.62 in SSW 4.8 mph 13 mph 86% 0.00 in 0 W/m2
07:09 53.6 °F 50.4 °F 29.61 in SSW 5 mph 11 mph 86% 0.00 in 0 W/m2
07:14 53.4 °F 50.5 °F 29.61 in SSW 6 mph 16 mph 87% 0.00 in 0 W/m2
07:19 53.2 °F 50.5 °F 29.61 in West 5.1 mph 14 mph 87.2% 0.00 in 0 W/m2
07:24 53.2 °F 50.7 °F 29.61 in SSW 3 mph 15 mph 88% 0.00 in 0 W/m2
07:29 53.4 °F 50.9 °F 29.61 in SW 4.2 mph 13 mph 88% 0.00 in 0 W/m2
07:34 53.7 °F 51.2 °F 29.61 in SW 7.8 mph 14 mph 88% 0.00 in 0 W/m2
07:39 53.8 °F 51.3 °F 29.60 in SW 7 mph 15 mph 88% 0.00 in 0 W/m2
07:44 54 °F 51.1 °F 29.60 in SW 6.2 mph 20 mph 87.2% 0.00 in 0 W/m2
07:49 54.2 °F 51.3 °F 29.60 in SW 8.8 mph 21 mph 86.8% 0.00 in 0 W/m2
07:54 54.3 °F 51.1 °F 29.60 in SW 11.6 mph 22 mph 85.8% 0.00 in 0 W/m2
07:59 54.7 °F 51.1 °F 29.60 in WSW 12.5 mph 23 mph 85% 0.00 in 0 W/m2
08:04 54.7 °F 51.1 °F 29.60 in SW 10.4 mph 21 mph 85% 0.00 in 0 W/m2
08:09 54.7 °F 51.1 °F 29.60 in SSW 7.9 mph 18 mph 85% 0.00 in 7 W/m2
08:13 54.7 °F 51.1 °F 29.59 in SSW 7.5 mph 13 mph 85% 0.00 in 11 W/m2
08:19 54.7 °F 51.1 °F 29.59 in SSW 9.6 mph 17 mph 85% 0.00 in 12 W/m2
08:24 54.8 °F 51.2 °F 29.59 in SW 8.4 mph 18 mph 85% 0.00 in 19 W/m2
08:29 54.9 °F 51.3 °F 29.59 in SW 10 mph 22 mph 85% 0.00 in 25 W/m2
08:34 55 °F 51.3 °F 29.59 in SW 12.3 mph 22 mph 85% 0.00 in 25 W/m2
08:39 55 °F 51.4 °F 29.59 in SW 9 mph 22 mph 85% 0.00 in 26 W/m2
08:44 55.1 °F 51.5 °F 29.59 in SSW 11.4 mph 23 mph 85% 0.00 in 25 W/m2
08:49 55.2 °F 51.6 °F 29.59 in SSW 8.6 mph 20 mph 85% 0.00 in 25 W/m2
08:54 55.2 °F 51.6 °F 29.59 in SSW 8.8 mph 20 mph 85% 0.00 in 21 W/m2
08:59 55.2 °F 51.6 °F 29.59 in SSW 10.4 mph 17 mph 85% 0.00 in 25 W/m2
09:04 55.2 °F 51.8 °F 29.59 in SSW 8 mph 18 mph 85.6% 0.00 in 32 W/m2
09:09 55 °F 51.9 °F 29.58 in SSW 6.6 mph 16 mph 86.2% 0.00 in 32 W/m2
09:14 54.9 °F 52.1 °F 29.58 in SSW 8.2 mph 14 mph 87% 0.00 in 32 W/m2
09:19 55 °F 52.2 °F 29.58 in South 7.7 mph 15 mph 87% 0.00 in 39 W/m2
09:24 55 °F 52.2 °F 29.58 in SSW 5.9 mph 15 mph 87% 0.00 in 33 W/m2
09:29 55 °F 52.5 °F 29.58 in South 8.9 mph 20 mph 88% 0.00 in 33 W/m2
09:34 55.2 °F 52.7 °F 29.58 in SSW 7.1 mph 21 mph 88% 0.00 in 42 W/m2
09:39 55.2 °F 52.7 °F 29.57 in SSW 7.8 mph 16 mph 88% 0.00 in 58 W/m2
09:44 55.2 °F 52.7 °F 29.57 in SSW 10.4 mph 22 mph 88.2% 0.00 in 70 W/m2
09:49 55.2 °F 52.9 °F 29.57 in SW 11.4 mph 26 mph 89% 0.00 in 62 W/m2
09:53 55.3 °F 53 °F 29.57 in South 8 mph 19 mph 89% 0.00 in 72 W/m2
09:59 55.2 °F 53.1 °F 29.57 in SSW 12 mph 19 mph 89.6% 0.00 in 77 W/m2
10:04 55.5 °F 53.5 °F 29.57 in SSW 7 mph 25 mph 90% 0.00 in 51 W/m2
10:09 55.6 °F 53.6 °F 29.57 in SSW 6.6 mph 16 mph 90% 0.00 in 42 W/m2
10:14 55.6 °F 53.6 °F 29.57 in SSW 8.6 mph 22 mph 90% 0.00 in 35 W/m2
10:19 55.6 °F 53.6 °F 29.57 in SSW 6.1 mph 16 mph 90% 0.00 in 49 W/m2
10:24 55.6 °F 53.6 °F 29.56 in South 11.6 mph 16 mph 90% 0.00 in 60 W/m2
10:29 55.6 °F 54 °F 29.55 in SSW 7.8 mph 16 mph 91% 0.00 in 74 W/m2
10:34 55.6 °F 54 °F 29.56 in SSW 9 mph 25 mph 91% 0.00 in 62 W/m2
10:39 55.8 °F 54.1 °F 29.56 in SSW 7.1 mph 14 mph 91% 0.00 in 51 W/m2
10:44 55.8 °F 54.1 °F 29.55 in South 6.2 mph 15 mph 91% 0.00 in 37 W/m2
10:49 55.8 °F 54.1 °F 29.56 in SSW 9.8 mph 15 mph 91% 0.00 in 37 W/m2
10:54 55.8 °F 54.1 °F 29.55 in SSW 8.9 mph 19 mph 91% 0.00 in 35 W/m2
10:59 55.9 °F 54.2 °F 29.55 in SSW 7.2 mph 15 mph 91% 0.00 in 44 W/m2
11:03 55.9 °F 54.3 °F 29.55 in SSW 6.8 mph 16 mph 91% 0.00 in 51 W/m2
11:09 55.9 °F 54.3 °F 29.55 in SSW 6.4 mph 17 mph 91% 0.00 in 30 W/m2
11:14 56.1 °F 54.5 °F 29.55 in SW 8 mph 15 mph 91% 0.00 in 37 W/m2
11:19 56.1 °F 54.5 °F 29.54 in SSW 7.2 mph 14 mph 91% 0.00 in 53 W/m2
11:24 56.3 °F 54.7 °F 29.53 in SSW 9.4 mph 14 mph 91% 0.00 in 58 W/m2
11:29 56.5 °F 54.9 °F 29.53 in SSW 6.4 mph 14 mph 91% 0.00 in 54 W/m2
11:34 56.5 °F 54.9 °F 29.53 in SSW 7.5 mph 15 mph 91% 0.00 in 46 W/m2
11:39 56.7 °F 55 °F 29.53 in SSW 7.5 mph 18 mph 91% 0.00 in 62 W/m2
11:44 56.7 °F 54.8 °F 29.53 in SW 6 mph 15 mph 90.2% 0.00 in 62 W/m2
11:49 56.8 °F 55.1 °F 29.53 in SSW 12 mph 22 mph 90.6% 0.00 in 47 W/m2
11:54 57 °F 55 °F 29.52 in SSW 7 mph 16 mph 90% 0.00 in 70 W/m2
11:59 57 °F 55 °F 29.52 in SSW 6.9 mph 19 mph 90% 0.00 in 69 W/m2
12:04 57 °F 55 °F 29.52 in SW 5.6 mph 12 mph 90% 0.00 in 54 W/m2
12:09 57 °F 55 °F 29.52 in SSW 5.8 mph 14 mph 90% 0.00 in 74 W/m2
12:14 57 °F 55.1 °F 29.51 in SSW 6.3 mph 17 mph 90.6% 0.00 in 88 W/m2
12:19 57.3 °F 55.3 °F 29.51 in SSW 7.7 mph 18 mph 90.2% 0.00 in 93 W/m2
12:24 57.5 °F 55.5 °F 29.51 in SSW 6.3 mph 17 mph 90% 0.00 in 91 W/m2
12:29 57.7 °F 55.8 °F 29.51 in SSW 7.3 mph 12 mph 90% 0.00 in 109 W/m2
12:34 57.7 °F 55.8 °F 29.50 in South 8.4 mph 15 mph 90% 0.00 in 95 W/m2
12:39 57.9 °F 55.7 °F 29.50 in SSW 11.2 mph 20 mph 89.2% 0.00 in 109 W/m2
12:44 58.1 °F 55.8 °F 29.50 in SW 9.7 mph 21 mph 89% 0.00 in 135 W/m2
12:49 58.3 °F 55.9 °F 29.49 in SSW 8.6 mph 15 mph 89% 0.00 in 142 W/m2
12:54 58.5 °F 55.9 °F 29.49 in South 8.2 mph 19 mph 88.4% 0.00 in 118 W/m2
12:59 58.3 °F 55.8 °F 29.49 in SSW 7.4 mph 19 mph 88.6% 0.00 in 105 W/m2
13:04 58.1 °F 55.7 °F 29.48 in South 8 mph 16 mph 89% 0.00 in 74 W/m2
13:09 57.9 °F 55.7 °F 29.47 in SSW 5.9 mph 18 mph 89.4% 0.00 in 77 W/m2
13:14 57.7 °F 55.8 °F 29.47 in SW 6.8 mph 15 mph 90% 0.00 in 113 W/m2
13:19 57.9 °F 55.9 °F 29.47 in South 5.6 mph 11 mph 90% 0.00 in 114 W/m2
13:24 57.9 °F 55.9 °F 29.47 in South 7.1 mph 16 mph 90% 0.00 in 100 W/m2
13:29 58.2 °F 56.2 °F 29.46 in SW 7.9 mph 20 mph 90% 0.00 in 83 W/m2
13:34 58.3 °F 56.3 °F 29.46 in SSW 7.6 mph 20 mph 90% 0.00 in 109 W/m2
13:39 58.5 °F 56.5 °F 29.45 in SW 11 mph 26 mph 90% 0.00 in 114 W/m2
13:44 58.5 °F 56.5 °F 29.45 in WSW 8.6 mph 27 mph 90% 0.00 in 111 W/m2
13:49 58.3 °F 56.3 °F 29.45 in SW 8.7 mph 20 mph 90% 0.00 in 139 W/m2
13:54 58.5 °F 56.4 °F 29.44 in SSW 5.2 mph 21 mph 89.8% 0.00 in 162 W/m2
13:59 58.6 °F 56.3 °F 29.44 in SSW 7.4 mph 17 mph 89% 0.00 in 206 W/m2
14:04 58.7 °F 56.4 °F 29.43 in SW 9.6 mph 23 mph 89% 0.00 in 148 W/m2
14:09 58.8 °F 56.4 °F 29.43 in SSW 6.5 mph 21 mph 88.8% 0.00 in 118 W/m2
14:14 58.9 °F 56.2 °F 29.43 in SW 14.8 mph 28 mph 88% 0.00 in 155 W/m2
14:19 59.1 °F 56.4 °F 29.42 in South 12.1 mph 21 mph 88% 0.00 in 107 W/m2
14:24 58.9 °F 55.9 °F 29.42 in SW 10.8 mph 28 mph 87.2% 0.00 in 90 W/m2
14:29 58.6 °F 55.9 °F 29.42 in SSW 10.6 mph 25 mph 88% 0.00 in 93 W/m2
14:34 58.5 °F 55.9 °F 29.41 in South 14.2 mph 27 mph 88.4% 0.00 in 97 W/m2
14:39 58.5 °F 56.1 °F 29.41 in SW 8.1 mph 24 mph 89% 0.00 in 120 W/m2
14:44 58.4 °F 56 °F 29.41 in SSW 9.6 mph 25 mph 89% 0.00 in 72 W/m2
14:49 58.2 °F 55.8 °F 29.40 in South 9.2 mph 25 mph 89% 0.00 in 74 W/m2
14:54 58.3 °F 55.9 °F 29.41 in South 11 mph 26 mph 89% 0.00 in 54 W/m2
14:59 58.3 °F 55.9 °F 29.41 in SSW 17.2 mph 32 mph 89% 0.00 in 70 W/m2
15:04 58.5 °F 56 °F 29.40 in SW 13.2 mph 32 mph 88.8% 0.00 in 76 W/m2
15:09 58.5 °F 55.8 °F 29.40 in SSW 14.2 mph 31 mph 88% 0.01 in 77 W/m2
15:14 58.3 °F 55.7 °F 29.40 in SW 13.8 mph 25 mph 88.5% 0.01 in 88 W/m2
15:19 58.1 °F 55.8 °F 29.40 in SW 11.4 mph 23 mph 89% 0.02 in 69 W/m2
15:24 57.9 °F 55.6 °F 29.39 in SSW 10 mph 20 mph 89% 0.02 in 56 W/m2
15:29 57.7 °F 55.5 °F 29.39 in SSW 6.4 mph 18 mph 89.2% 0.02 in 72 W/m2
15:34 57.7 °F 55.7 °F 29.40 in SW 7.8 mph 14 mph 89.8% 0.01 in 60 W/m2
15:39 57.7 °F 55.8 °F 29.40 in SW 6.5 mph 12 mph 90% 0.01 in 91 W/m2
15:44 57.6 °F 55.7 °F 29.39 in South 7.2 mph 21 mph 90% 0.01 in 90 W/m2
15:49 57.3 °F 55 °F 29.39 in SW 8.2 mph 21 mph 89.2% 0.01 in 105 W/m2
15:54 57.2 °F 54.5 °F 29.39 in SW 8.1 mph 18 mph 88.2% 0.01 in 100 W/m2
15:59 57 °F 54.3 °F 29.39 in SW 6.1 mph 15 mph 88% 0.02 in 62 W/m2
16:04 57 °F 54.3 °F 29.39 in SW 5.1 mph 11 mph 88% 0.02 in 39 W/m2
16:09 57 °F 54.3 °F 29.39 in SSW 9.4 mph 18 mph 88% 0.02 in 44 W/m2
16:14 56.9 °F 54.2 °F 29.38 in SW 5.1 mph 16 mph 88% 0.01 in 49 W/m2
16:19 56.8 °F 54.1 °F 29.38 in SW 7.9 mph 15 mph 87.8% 0.01 in 42 W/m2
16:24 56.8 °F 54 °F 29.38 in SSW 4.7 mph 10 mph 87.3% 0.00 in 35 W/m2
16:29 56.7 °F 53.9 °F 29.37 in SSW 6.6 mph 13 mph 87.4% 0.00 in 35 W/m2
16:34 56.5 °F 53.6 °F 29.37 in SW 7.2 mph 17 mph 87% 0.00 in 42 W/m2
16:39 56.4 °F 53.5 °F 29.37 in WSW 10.2 mph 15 mph 87.2% 0.00 in 46 W/m2
16:44 56.3 °F 53.4 °F 29.37 in SW 6.4 mph 17 mph 87.2% 0.00 in 40 W/m2
16:49 56.1 °F 53.3 °F 29.36 in SW 7 mph 17 mph 87.4% 0.00 in 18 W/m2
16:54 56.1 °F 53.2 °F 29.37 in SSW 9.4 mph 22 mph 87% 0.00 in 21 W/m2
16:59 56.1 °F 53 °F 29.37 in SW 9.6 mph 26 mph 86.4% 0.00 in 32 W/m2
17:04 56.1 °F 52.9 °F 29.37 in SW 9 mph 20 mph 86% 0.00 in 28 W/m2
17:09 56.1 °F 52.9 °F 29.36 in SW 12.6 mph 20 mph 86% 0.00 in 23 W/m2
17:14 55.9 °F 52.7 °F 29.36 in SSW 8.8 mph 20 mph 86% 0.00 in 16 W/m2
17:19 55.9 °F 52.7 °F 29.36 in SW 4.4 mph 16 mph 86% 0.00 in 9 W/m2
17:24 55.8 °F 52.5 °F 29.36 in WSW 8.2 mph 17 mph 86% 0.00 in 7 W/m2
17:29 55.8 °F 52.5 °F 29.36 in SSW 6 mph 17 mph 86% 0.00 in 7 W/m2
17:34 55.8 °F 52.2 °F 29.36 in SSW 6.4 mph 16 mph 85% 0.00 in 5 W/m2
17:39 55.6 °F 52.1 °F 29.35 in SW 8.4 mph 16 mph 85.4% 0.00 in 5 W/m2
17:44 55.6 °F 52.1 °F 29.35 in SW 6 mph 13 mph 85.2% 0.00 in 0 W/m2
17:49 55.6 °F 52.3 °F 29.35 in SW 6.6 mph 11 mph 86% 0.00 in 0 W/m2
17:54 55.5 °F 52.2 °F 29.35 in SW 7.1 mph 10 mph 86% 0.00 in 0 W/m2
17:59 55.3 °F 51.9 °F 29.34 in SSW 6 mph 13 mph 85.6% 0.00 in 0 W/m2
18:04 55.2 °F 52 °F 29.34 in South 6.6 mph 13 mph 86% 0.00 in 0 W/m2
18:09 55.1 °F 51.9 °F 29.34 in SSW 5.7 mph 15 mph 86% 0.00 in 0 W/m2
18:14 55 °F 51.8 °F 29.34 in SW 5.6 mph 13 mph 86% 0.00 in 0 W/m2
18:19 55 °F 51.8 °F 29.34 in SW 5.6 mph 17 mph 86% 0.00 in 0 W/m2
18:24 55 °F 51.8 °F 29.34 in SSW 6.7 mph 12 mph 86% 0.00 in 0 W/m2
18:29 55 °F 51.9 °F 29.34 in SW 6.6 mph 13 mph 86.2% 0.00 in 0 W/m2
18:34 55 °F 52.1 °F 29.34 in SW 5.2 mph 11 mph 87% 0.00 in 0 W/m2
18:39 54.9 °F 52 °F 29.34 in SSW 7.1 mph 15 mph 87% 0.01 in 0 W/m2
18:44 54.9 °F 52.1 °F 29.33 in SW 8 mph 12 mph 87.2% 0.01 in 0 W/m2
18:49 54.9 °F 52.3 °F 29.33 in SSW 5.3 mph 17 mph 88% 0.01 in 0 W/m2
18:54 54.9 °F 52.3 °F 29.34 in SW 4.8 mph 11 mph 88% 0.01 in 0 W/m2
18:59 54.9 °F 52.4 °F 29.34 in SSW 4.6 mph 8 mph 88.8% 0.01 in 0 W/m2
19:04 54.7 °F 52.3 °F 29.34 in SW 7.8 mph 12 mph 89% 0.01 in 0 W/m2
19:09 54.7 °F 52.3 °F 29.34 in SW 7.6 mph 14 mph 89% 0.02 in 0 W/m2
19:14 54.7 °F 52.3 °F 29.34 in WSW 7.8 mph 15 mph 89% 0.02 in 0 W/m2
19:19 54.6 °F 52.3 °F 29.34 in West 6.2 mph 16 mph 89% 0.03 in 0 W/m2
19:24 54.3 °F 52.2 °F 29.35 in West 6.3 mph 12 mph 89.8% 0.04 in 0 W/m2
19:29 54.1 °F 52.1 °F 29.35 in West 6.8 mph 12 mph 90% 0.04 in 0 W/m2
19:34 54 °F 52 °F 29.35 in WNW 7.6 mph 11 mph 90% 0.04 in 0 W/m2
19:39 53.7 °F 51.8 °F 29.34 in WNW 4.9 mph 12 mph 90.2% 0.05 in 0 W/m2
19:44 53.4 °F 51.8 °F 29.34 in WNW 3.8 mph 11 mph 91% 0.06 in 0 W/m2
19:49 53.1 °F 51.4 °F 29.35 in WNW 7.6 mph 14 mph 91% 0.06 in 0 W/m2
19:54 52.9 °F 51.3 °F 29.35 in West 4.4 mph 10 mph 91% 0.06 in 0 W/m2
19:59 52.6 °F 51 °F 29.35 in West 4.9 mph 10 mph 91% 0.06 in 0 W/m2
20:04 52.6 °F 51 °F 29.34 in West 2.4 mph 10 mph 91% 0.07 in 0 W/m2
20:09 52.8 °F 51.3 °F 29.34 in SSW 2.4 mph 6 mph 91.8% 0.07 in 0 W/m2
20:14 52.7 °F 51.3 °F 29.33 in SSW 3.3 mph 7 mph 92% 0.07 in 0 W/m2
20:19 52.5 °F 51.1 °F 29.34 in WSW 2.1 mph 7 mph 92% 0.06 in 0 W/m2
20:24 52.5 °F 51.1 °F 29.34 in West 4.1 mph 9 mph 92% 0.05 in 0 W/m2
20:29 52.3 °F 50.9 °F 29.34 in West 3.3 mph 7 mph 92% 0.05 in 0 W/m2
20:34 52.3 °F 50.9 °F 29.34 in WSW 4 mph 8 mph 92% 0.05 in 0 W/m2
20:39 52.3 °F 50.9 °F 29.34 in SW 3.6 mph 7 mph 92% 0.04 in 0 W/m2
20:44 52.2 °F 50.7 °F 29.35 in SW 3.8 mph 7 mph 92% 0.04 in 0 W/m2
20:49 52.2 °F 50.7 °F 29.34 in SW 1.6 mph 6 mph 92% 0.03 in 0 W/m2
20:54 52.2 °F 50.7 °F 29.34 in SW 2.4 mph 4 mph 92% 0.03 in 0 W/m2
20:59 52.1 °F 50.6 °F 29.34 in SW 1.7 mph 5 mph 92% 0.03 in 0 W/m2
21:04 52.1 °F 50.6 °F 29.34 in SW 1.2 mph 5 mph 92% 0.02 in 0 W/m2
21:09 52 °F 50.5 °F 29.33 in SW 1.5 mph 5 mph 92% 0.02 in 0 W/m2
21:14 52 °F 50.5 °F 29.33 in West 2.4 mph 5 mph 92% 0.02 in 0 W/m2
21:19 51.9 °F 50.5 °F 29.34 in West 4.4 mph 8 mph 92% 0.04 in 0 W/m2
21:24 51.8 °F 50.3 °F 29.34 in WNW 4.4 mph 10 mph 92% 0.11 in 0 W/m2
21:29 51.1 °F 49.7 °F 29.34 in West 10.8 mph 17 mph 92% 0.13 in 0 W/m2
21:34 50.8 °F 49.5 °F 29.34 in West 8.1 mph 14 mph 92% 0.17 in 0 W/m2
21:39 50.7 °F 49.5 °F 29.34 in WSW 8.7 mph 16 mph 92% 0.19 in 0 W/m2
21:44 51.1 °F 49.6 °F 29.34 in WSW 6.7 mph 15 mph 92% 0.20 in 0 W/m2
21:49 50.9 °F 49.6 °F 29.34 in WSW 4.7 mph 12 mph 92% 0.20 in 0 W/m2
21:54 50.9 °F 49.6 °F 29.35 in WSW 9.2 mph 15 mph 92% 0.19 in 0 W/m2
21:59 51 °F 49.6 °F 29.35 in WSW 7.8 mph 18 mph 92% 0.19 in 0 W/m2
22:04 51.1 °F 49.6 °F 29.36 in WSW 5.2 mph 18 mph 92% 0.19 in 0 W/m2
22:09 51.2 °F 49.7 °F 29.36 in WSW 4.9 mph 10 mph 92% 0.19 in 0 W/m2
22:14 51.3 °F 49.8 °F 29.35 in SW 4.2 mph 9 mph 92% 0.19 in 0 W/m2
22:19 51.3 °F 49.8 °F 29.35 in WSW 3.5 mph 6 mph 92% 0.19 in 0 W/m2
22:24 51.3 °F 49.8 °F 29.35 in WSW 4.1 mph 7 mph 92% 0.16 in 0 W/m2
22:29 51.3 °F 49.8 °F 29.35 in WSW 4.2 mph 9 mph 92% 0.08 in 0 W/m2
22:34 51.3 °F 49.8 °F 29.35 in WSW 5 mph 9 mph 92% 0.07 in 0 W/m2
22:39 51.3 °F 49.8 °F 29.36 in WSW 3.6 mph 8 mph 92% 0.02 in 0 W/m2
22:44 51.3 °F 49.6 °F 29.36 in WSW 4.4 mph 13 mph 91% 0.01 in 0 W/m2
22:49 51.1 °F 49.5 °F 29.36 in WSW 6.5 mph 12 mph 91% 0.00 in 0 W/m2
22:54 51.2 °F 49.6 °F 29.36 in SW 6 mph 12 mph 91% 0.00 in 0 W/m2
22:59 50.9 °F 49.3 °F 29.36 in SW 9.2 mph 13 mph 91% 0.00 in 0 W/m2
23:04 50.7 °F 49.1 °F 29.36 in WSW 4.4 mph 10 mph 90.8% 0.00 in 0 W/m2
23:09 50.7 °F 48.7 °F 29.36 in WSW 4.5 mph 9 mph 90% 0.00 in 0 W/m2
23:14 50.6 °F 48.7 °F 29.37 in West 4.9 mph 9 mph 90% 0.00 in 0 W/m2
23:19 50.5 °F 48.5 °F 29.37 in West 4.5 mph 8 mph 90% 0.00 in 0 W/m2
23:24 50.2 °F 48.2 °F 29.37 in WNW 3.1 mph 9 mph 90% 0.00 in 0 W/m2
23:29 50 °F 48 °F 29.37 in WSW 4.4 mph 9 mph 90% 0.00 in 0 W/m2
23:34 50 °F 48 °F 29.38 in West 4 mph 9 mph 90% 0.00 in 0 W/m2
23:39 49.8 °F 47.8 °F 29.38 in West 3.2 mph 6 mph 90% 0.00 in 0 W/m2
23:44 49.8 °F 47.8 °F 29.38 in West 3.5 mph 7 mph 90% 0.00 in 0 W/m2
23:49 49.8 °F 47.8 °F 29.38 in WSW 2.5 mph 6 mph 90% 0.00 in 0 W/m2
23:54 49.6 °F 47.7 °F 29.38 in West 2.9 mph 7 mph 90% 0.00 in 0 W/m2
23:59 49.5 °F 47.8 °F 29.38 in WSW 3.3 mph 8 mph 90.6% 0.00 in 0 W/m2
Bath Spa Weather
Compliments of Weather Underground - 2 mb